Terminal Aerodrome Forecast
Issued by NWS Atlanta, GA

Home | Current Version | Previous Version | Text Only | Print | Product List | Glossary On
Versions: 1 2 3 4 5 6 7 8 9 10 11 12 13 14
000
FTUS42 KFFC 031120
TAFCSG
TAF
KCSG 031120Z 0312/0412 VRB03KT P6SM SCT050 BKN180
     FM031400 30003KT P6SM SCT035 BKN150
     FM031700 30006KT P6SM VCSH SCT045 BKN150
     FM040000 VRB03KT P6SM SCT060 SCT150=

USA.gov is the U.S. government's official web portal to all federal, state and local government web resources and services.